createdAt,value
2018-07-06T00:02:28.075Z,4.20
2018-07-06T00:05:08.303Z,4.37
2018-07-06T00:07:48.750Z,4.67
2018-07-06T00:10:29.160Z,5.37
2018-07-06T00:13:09.622Z,5.30
2018-07-06T00:15:50.086Z,4.40
2018-07-06T00:18:30.576Z,5.87
2018-07-06T00:21:10.934Z,5.40
2018-07-06T00:23:51.372Z,5.37
2018-07-06T00:26:31.713Z,5.20
2018-07-06T00:29:06.014Z,5.67
2018-07-06T00:31:46.386Z,5.50
2018-07-06T00:34:26.630Z,5.70
2018-07-06T00:37:06.807Z,5.73
2018-07-06T00:39:47.178Z,5.13
2018-07-06T00:42:27.824Z,5.20
2018-07-06T00:45:08.137Z,5.20
2018-07-06T00:47:48.565Z,5.30
2018-07-06T00:50:29.030Z,5.43
2018-07-06T00:53:09.416Z,5.70
2018-07-06T00:55:49.722Z,5.40
2018-07-06T00:58:30.015Z,5.93
2018-07-06T01:01:10.295Z,6.93
2018-07-06T01:03:50.622Z,6.47
2018-07-06T01:06:30.974Z,6.47
2018-07-06T01:09:11.258Z,7.10
2018-07-06T01:11:51.757Z,7.63
2018-07-06T01:14:32.153Z,8.23
2018-07-06T01:17:16.700Z,8.47
2018-07-06T01:19:57.809Z,9.00
2018-07-06T01:22:38.360Z,9.20
2018-07-06T01:25:18.778Z,9.40
2018-07-06T01:27:59.216Z,10.40
2018-07-06T01:30:39.753Z,10.20
2018-07-06T01:33:20.185Z,10.33
2018-07-06T01:36:00.637Z,9.80
2018-07-06T01:38:40.997Z,12.00
2018-07-06T01:41:21.474Z,11.30
2018-07-06T01:44:01.842Z,11.77
2018-07-06T01:46:42.230Z,11.47
2018-07-06T01:49:22.677Z,11.53
2018-07-06T01:52:03.032Z,12.10
2018-07-06T01:54:43.403Z,12.70
2018-07-06T01:57:23.677Z,11.30
2018-07-06T02:00:04.014Z,12.37
2018-07-06T02:02:44.361Z,12.23
2018-07-06T02:05:24.488Z,13.13
2018-07-06T02:08:04.815Z,12.70
2018-07-06T02:10:45.448Z,13.37
2018-07-06T02:13:25.926Z,13.00
2018-07-06T02:16:06.093Z,12.73
2018-07-06T02:18:46.461Z,13.27
2018-07-06T02:21:26.707Z,12.57
2018-07-06T02:24:06.953Z,12.77
2018-07-06T02:26:47.311Z,12.73
2018-07-06T02:29:27.741Z,13.73
2018-07-06T02:32:08.085Z,12.37
2018-07-06T02:34:48.404Z,12.83
2018-07-06T02:37:28.829Z,13.33
2018-07-06T02:40:09.469Z,13.53
2018-07-06T02:42:49.931Z,13.77
2018-07-06T02:45:30.210Z,14.00
2018-07-06T02:48:10.793Z,14.80
2018-07-06T02:50:51.333Z,14.30
2018-07-06T02:53:31.776Z,14.57
2018-07-06T02:56:12.062Z,13.83
2018-07-06T02:58:52.382Z,13.50
2018-07-06T03:01:32.667Z,13.87
2018-07-06T03:04:13.133Z,12.60
2018-07-06T03:06:53.671Z,14.13
2018-07-06T03:09:34.052Z,14.07
2018-07-06T03:12:08.276Z,13.97
2018-07-06T03:14:48.698Z,14.20
2018-07-06T03:17:29.232Z,14.60
2018-07-06T03:20:09.497Z,13.30
2018-07-06T03:22:49.794Z,14.50
2018-07-06T03:25:30.526Z,14.80
2018-07-06T03:28:11.028Z,14.47
2018-07-06T03:30:51.223Z,15.20
2018-07-06T03:33:31.782Z,14.60
2018-07-06T03:36:12.228Z,15.70
2018-07-06T03:38:52.652Z,14.33
2018-07-06T03:41:32.948Z,15.00
2018-07-06T03:44:13.434Z,15.30
2018-07-06T03:46:53.888Z,15.13
2018-07-06T03:49:34.470Z,15.00
2018-07-06T03:52:14.794Z,15.33
2018-07-06T03:54:56.132Z,14.47
2018-07-06T03:57:37.356Z,14.73
2018-07-06T04:00:17.876Z,14.10
2018-07-06T04:02:58.192Z,14.33
2018-07-06T04:05:38.564Z,14.73
2018-07-06T04:08:19.118Z,15.60
2018-07-06T04:10:59.678Z,12.83
2018-07-06T04:13:39.918Z,14.40
2018-07-06T04:16:20.506Z,14.37
2018-07-06T04:19:04.662Z,13.93
2018-07-06T04:21:45.009Z,13.63
2018-07-06T04:24:25.355Z,14.07
2018-07-06T04:27:05.840Z,12.63
2018-07-06T04:29:46.369Z,12.90
2018-07-06T04:32:26.644Z,12.70
2018-07-06T04:35:00.877Z,12.33
2018-07-06T04:37:41.540Z,12.23
2018-07-06T04:40:22.309Z,13.13
2018-07-06T04:43:03.049Z,12.73
2018-07-06T04:45:43.751Z,12.40
2018-07-06T04:48:24.176Z,12.63
2018-07-06T04:51:04.713Z,12.03
2018-07-06T04:53:45.066Z,11.73
2018-07-06T04:56:25.805Z,11.37
2018-07-06T04:59:06.260Z,9.70
2018-07-06T05:01:46.673Z,9.67
2018-07-06T05:04:20.875Z,9.27
2018-07-06T05:07:01.147Z,9.77
2018-07-06T05:09:41.554Z,9.57
2018-07-06T05:12:22.018Z,8.80
2018-07-06T05:15:02.490Z,8.60
2018-07-06T05:17:43.044Z,8.17
2018-07-06T05:20:23.519Z,7.87
2018-07-06T05:23:03.825Z,7.27
2018-07-06T05:25:44.129Z,7.40
2018-07-06T05:28:24.587Z,6.90
2018-07-06T05:31:05.767Z,6.30
2018-07-06T05:33:46.534Z,6.00
2018-07-06T05:36:26.981Z,5.83
2018-07-06T05:39:07.378Z,5.70
2018-07-06T05:41:47.889Z,5.90
2018-07-06T05:44:28.243Z,6.23
2018-07-06T05:47:08.524Z,5.90
2018-07-06T05:49:48.853Z,6.07
2018-07-06T05:52:29.449Z,5.60
2018-07-06T05:55:09.820Z,6.23
2018-07-06T05:57:50.223Z,6.40
2018-07-06T06:00:30.548Z,6.90
2018-07-06T06:03:11.109Z,7.63
2018-07-06T06:05:51.470Z,7.67
2018-07-06T06:08:19.425Z,7.70
2018-07-06T06:10:48.509Z,7.33
2018-07-06T06:13:17.611Z,8.20
2018-07-06T06:15:46.689Z,7.80
2018-07-06T06:18:16.019Z,8.27
2018-07-06T06:20:45.050Z,8.20
2018-07-06T06:23:14.083Z,9.57
2018-07-06T06:25:43.121Z,9.00
2018-07-06T06:28:12.117Z,8.57
2018-07-06T06:30:41.333Z,9.17
2018-07-06T06:33:10.466Z,8.77
2018-07-06T06:35:39.534Z,10.00
2018-07-06T06:38:08.497Z,8.90
2018-07-06T06:40:37.511Z,9.27
2018-07-06T06:43:07.249Z,8.57
2018-07-06T06:45:36.749Z,8.93
2018-07-06T06:48:05.879Z,8.53
2018-07-06T06:50:34.888Z,9.07
2018-07-06T06:53:04.095Z,8.47
2018-07-06T06:55:33.113Z,8.10
2018-07-06T06:58:02.338Z,8.40
2018-07-06T07:00:31.429Z,7.80
2018-07-06T07:03:00.751Z,8.63
2018-07-06T07:05:29.996Z,7.50
2018-07-06T07:07:59.092Z,8.23
2018-07-06T07:10:28.388Z,8.87
2018-07-06T07:12:57.360Z,8.53
2018-07-06T07:15:26.400Z,9.00
2018-07-06T07:17:55.429Z,9.13
2018-07-06T07:20:24.409Z,9.50
2018-07-06T07:22:53.418Z,9.50
2018-07-06T07:25:22.441Z,12.57
2018-07-06T07:27:51.676Z,8.63
2018-07-06T07:30:20.753Z,8.37
2018-07-06T07:32:49.908Z,9.67
2018-07-06T07:35:18.927Z,9.33
2018-07-06T07:37:47.952Z,8.77
2018-07-06T07:40:16.980Z,8.60
2018-07-06T07:42:46.255Z,9.63
2018-07-06T07:45:15.229Z,8.60
2018-07-06T07:47:44.304Z,8.23
2018-07-06T07:50:13.313Z,9.03
2018-07-06T07:52:53.651Z,8.80
2018-07-06T07:55:22.693Z,8.93
2018-07-06T07:57:51.444Z,8.53
2018-07-06T08:00:20.566Z,8.73
2018-07-06T08:02:49.553Z,7.80
2018-07-06T08:05:18.617Z,8.67
2018-07-06T08:07:48.268Z,9.10
2018-07-06T08:10:17.380Z,9.30
2018-07-06T08:12:46.414Z,9.13
2018-07-06T08:15:15.392Z,8.90
2018-07-06T08:17:44.398Z,8.47
2018-07-06T08:20:13.375Z,8.07
2018-07-06T08:22:42.362Z,7.40
2018-07-06T08:25:11.330Z,8.50
2018-07-06T08:27:40.338Z,8.27
2018-07-06T08:30:09.142Z,8.67
2018-07-06T08:32:38.119Z,8.20
2018-07-06T08:35:18.462Z,7.27
2018-07-06T08:37:56.090Z,8.03
2018-07-06T08:40:26.109Z,7.60
2018-07-06T08:42:56.490Z,6.87
2018-07-06T08:45:25.838Z,6.80
2018-07-06T08:47:55.026Z,7.43
2018-07-06T08:50:24.148Z,7.10
2018-07-06T08:52:53.939Z,6.83
2018-07-06T08:55:23.264Z,6.40
2018-07-06T08:57:53.660Z,6.40
2018-07-06T09:00:22.652Z,6.33
2018-07-06T09:02:51.678Z,6.50
2018-07-06T09:05:20.738Z,5.93
2018-07-06T09:07:49.848Z,7.00
2018-07-06T09:10:18.857Z,6.83
2018-07-06T09:12:47.865Z,5.60
2018-07-06T09:15:16.867Z,6.30
2018-07-06T09:17:45.928Z,6.20
2018-07-06T09:20:14.982Z,7.00
2018-07-06T09:22:44.082Z,5.87
2018-07-06T09:25:13.179Z,6.20
2018-07-06T09:27:42.611Z,6.53
2018-07-06T09:30:11.563Z,6.17
2018-07-06T09:32:40.561Z,5.83
2018-07-06T09:35:09.605Z,4.97
2018-07-06T09:37:38.682Z,4.90
2018-07-06T09:40:08.157Z,5.27
2018-07-06T09:42:37.142Z,5.77
2018-07-06T09:45:06.309Z,5.20
2018-07-06T09:47:35.509Z,5.00
2018-07-06T09:50:04.597Z,5.30
2018-07-06T09:52:33.617Z,5.53
2018-07-06T09:55:03.509Z,5.10
2018-07-06T09:57:32.486Z,5.17
2018-07-06T10:00:01.538Z,4.97
2018-07-06T10:02:30.557Z,5.20
2018-07-06T10:04:59.661Z,5.07
2018-07-06T10:07:28.681Z,4.40
2018-07-06T10:09:57.717Z,4.50
2018-07-06T10:12:26.690Z,3.97
2018-07-06T10:14:55.705Z,4.67
2018-07-06T10:17:24.789Z,5.33
2018-07-06T10:19:53.684Z,4.30
2018-07-06T10:22:22.535Z,4.40
2018-07-06T10:24:51.551Z,3.67
2018-07-06T10:27:20.603Z,4.40
2018-07-06T10:30:02.144Z,4.40
2018-07-06T10:32:31.266Z,4.50
2018-07-06T10:35:00.773Z,4.67
2018-07-06T10:37:30.295Z,4.17
2018-07-06T10:39:59.526Z,4.27
2018-07-06T10:42:28.483Z,4.73
2018-07-06T10:44:57.586Z,4.30
2018-07-06T10:47:26.608Z,4.13
2018-07-06T10:49:55.650Z,4.60
2018-07-06T10:52:24.677Z,4.60
2018-07-06T10:54:53.653Z,4.67
2018-07-06T10:57:22.751Z,5.00
2018-07-06T10:59:51.766Z,4.63
2018-07-06T11:02:20.796Z,5.07
2018-07-06T11:04:49.902Z,4.13
2018-07-06T11:07:18.937Z,4.30
2018-07-06T11:09:47.996Z,4.77
2018-07-06T11:12:16.811Z,4.50
2018-07-06T11:14:45.731Z,4.23
2018-07-06T11:17:14.768Z,3.97
2018-07-06T11:19:43.797Z,4.57
2018-07-06T11:22:13.198Z,4.67
2018-07-06T11:24:42.204Z,4.40
2018-07-06T11:27:11.286Z,4.60
2018-07-06T11:29:40.362Z,4.63
2018-07-06T11:32:09.392Z,4.20
2018-07-06T11:34:38.358Z,3.83
2018-07-06T11:37:07.414Z,4.30
2018-07-06T11:39:36.490Z,4.03
2018-07-06T11:42:05.621Z,4.37
2018-07-06T11:44:34.750Z,4.07
2018-07-06T11:47:03.784Z,3.87
2018-07-06T11:49:33.161Z,4.37
2018-07-06T11:52:02.179Z,4.30
2018-07-06T11:54:31.270Z,4.10
2018-07-06T11:57:00.932Z,4.30
2018-07-06T11:59:30.214Z,4.70
2018-07-06T12:01:59.202Z,4.30
2018-07-06T12:04:28.277Z,4.10
2018-07-06T12:06:57.328Z,4.40
2018-07-06T12:09:26.371Z,4.20
2018-07-06T12:11:55.380Z,3.83
2018-07-06T12:14:24.748Z,3.80
2018-07-06T12:16:53.764Z,3.90
2018-07-06T12:19:22.985Z,3.40
2018-07-06T12:21:52.051Z,4.27
2018-07-06T12:24:21.074Z,3.70
2018-07-06T12:26:49.813Z,4.40
2018-07-06T12:29:18.724Z,4.33
2018-07-06T12:31:47.760Z,3.83
2018-07-06T12:34:16.797Z,4.10
2018-07-06T12:36:45.810Z,4.80
2018-07-06T12:39:14.882Z,4.30
2018-07-06T12:41:43.873Z,3.80
2018-07-06T12:44:13.127Z,4.13
2018-07-06T12:46:42.162Z,4.10
2018-07-06T12:49:11.133Z,5.00
2018-07-06T12:51:40.185Z,4.30
2018-07-06T12:54:09.237Z,4.40
2018-07-06T12:56:38.292Z,4.50
2018-07-06T12:59:07.209Z,4.70
2018-07-06T13:01:36.257Z,4.10
2018-07-06T13:04:05.407Z,4.90
2018-07-06T13:06:34.413Z,4.60
2018-07-06T13:09:03.985Z,4.70
2018-07-06T13:11:33.010Z,5.17
2018-07-06T13:14:02.961Z,5.00
2018-07-06T13:16:31.949Z,5.77
2018-07-06T13:19:00.961Z,4.60
2018-07-06T13:21:29.995Z,5.20
2018-07-06T13:23:59.050Z,11.60
2018-07-06T13:26:28.141Z,6.60
2018-07-06T13:28:57.779Z,7.43
2018-07-06T13:31:26.825Z,6.00
2018-07-06T13:33:55.892Z,5.93
2018-07-06T13:36:24.853Z,7.70
2018-07-06T13:38:53.867Z,8.03
2018-07-06T13:41:23.563Z,6.80
2018-07-06T13:43:52.541Z,6.80
2018-07-06T13:46:21.530Z,7.20
2018-07-06T13:48:50.481Z,7.57
2018-07-06T13:51:19.502Z,7.07
2018-07-06T13:53:48.445Z,7.17
2018-07-06T13:56:17.401Z,6.97
2018-07-06T13:58:46.433Z,6.93
2018-07-06T14:01:15.520Z,7.23
2018-07-06T14:03:44.485Z,6.57
2018-07-06T14:06:13.512Z,6.70
2018-07-06T14:08:42.569Z,5.60
2018-07-06T14:11:11.680Z,6.43
2018-07-06T14:13:40.798Z,5.50
2018-07-06T14:16:09.804Z,5.73
2018-07-06T14:18:38.790Z,6.10
2018-07-06T14:21:07.806Z,5.33
2018-07-06T14:23:36.807Z,5.50
2018-07-06T14:26:06.436Z,5.90
2018-07-06T14:28:35.476Z,5.07
2018-07-06T14:31:04.488Z,4.83
2018-07-06T14:33:33.496Z,4.57
2018-07-06T14:36:02.532Z,4.57
2018-07-06T14:38:31.524Z,5.60
2018-07-06T14:41:00.595Z,4.00
2018-07-06T14:43:29.866Z,4.33
2018-07-06T14:45:58.883Z,4.20
2018-07-06T14:48:27.898Z,3.90
2018-07-06T14:50:56.882Z,4.30
2018-07-06T14:53:25.925Z,4.20
2018-07-06T14:55:54.894Z,3.97
2018-07-06T14:58:23.602Z,3.80
2018-07-06T15:00:53.390Z,4.20
2018-07-06T15:03:22.498Z,3.80
2018-07-06T15:05:51.472Z,4.07
2018-07-06T15:08:20.462Z,4.00
2018-07-06T15:10:49.696Z,4.00
2018-07-06T15:13:18.829Z,4.53
2018-07-06T15:15:47.986Z,4.20
2018-07-06T15:18:17.042Z,4.20
2018-07-06T15:20:46.044Z,4.50
2018-07-06T15:23:15.033Z,4.40
2018-07-06T15:25:43.992Z,4.30
2018-07-06T15:28:13.054Z,4.20
2018-07-06T15:30:42.152Z,4.13
2018-07-06T15:33:11.150Z,4.60
2018-07-06T15:35:40.158Z,4.30
2018-07-06T15:38:09.759Z,4.83
2018-07-06T15:40:38.784Z,4.40
2018-07-06T15:43:07.836Z,5.20
2018-07-06T15:45:40.662Z,4.50
2018-07-06T15:48:09.813Z,4.83
2018-07-06T15:50:38.910Z,5.00
2018-07-06T15:53:07.974Z,5.00
2018-07-06T15:55:37.002Z,4.50
2018-07-06T15:58:06.299Z,4.90
2018-07-06T16:00:35.398Z,5.13
2018-07-06T16:03:04.390Z,4.87
2018-07-06T16:05:33.398Z,4.83
2018-07-06T16:08:02.478Z,5.43
2018-07-06T16:10:31.579Z,4.93
2018-07-06T16:13:00.577Z,5.13
2018-07-06T16:15:29.532Z,5.67
2018-07-06T16:17:58.511Z,5.57
2018-07-06T16:20:27.476Z,5.10
2018-07-06T16:22:56.466Z,5.37
2018-07-06T16:25:25.435Z,5.53
2018-07-06T16:27:54.509Z,5.33
2018-07-06T16:30:23.545Z,5.70
2018-07-06T16:32:52.567Z,5.30
2018-07-06T16:35:21.561Z,5.07
2018-07-06T16:37:50.669Z,4.90
2018-07-06T16:40:19.717Z,5.30
2018-07-06T16:42:48.756Z,5.20
2018-07-06T16:45:17.782Z,5.37
2018-07-06T16:47:46.843Z,4.80
2018-07-06T16:50:15.851Z,5.50
2018-07-06T16:52:44.697Z,4.77
2018-07-06T16:55:13.594Z,5.43
2018-07-06T16:57:42.563Z,4.90
2018-07-06T17:00:11.552Z,5.43
2018-07-06T17:02:40.740Z,5.30
2018-07-06T17:05:09.837Z,5.40
2018-07-06T17:07:38.940Z,5.00
2018-07-06T17:10:08.237Z,5.20
2018-07-06T17:12:37.351Z,9.07
2018-07-06T17:15:06.391Z,5.40
2018-07-06T17:17:35.357Z,5.50
2018-07-06T17:20:04.373Z,5.60
2018-07-06T17:22:33.421Z,6.10
2018-07-06T17:25:02.501Z,5.60
2018-07-06T17:27:31.562Z,5.70
2018-07-06T17:30:00.593Z,6.40
2018-07-06T17:32:29.643Z,6.27
2018-07-06T17:34:58.699Z,6.57
2018-07-06T17:37:28.393Z,6.10
2018-07-06T17:39:57.587Z,6.17
2018-07-06T17:42:26.664Z,5.80
2018-07-06T17:44:55.722Z,5.70
2018-07-06T17:47:24.712Z,5.90
2018-07-06T17:49:53.725Z,5.70
2018-07-06T17:52:22.780Z,5.70
2018-07-06T17:54:52.079Z,5.37
2018-07-06T17:57:21.174Z,5.10
2018-07-06T17:59:50.278Z,5.80
2018-07-06T18:02:19.256Z,5.67
2018-07-06T18:04:48.274Z,5.40
2018-07-06T18:07:17.332Z,5.70
2018-07-06T18:09:46.308Z,5.90
2018-07-06T18:12:15.324Z,5.50
2018-07-06T18:14:44.414Z,5.60
2018-07-06T18:17:13.879Z,5.37
2018-07-06T18:19:43.198Z,5.80
2018-07-06T18:22:12.212Z,5.27
2018-07-06T18:24:41.257Z,5.83
2018-07-06T18:27:10.221Z,5.63
2018-07-06T18:29:39.256Z,5.60
2018-07-06T18:32:08.301Z,5.33
2018-07-06T18:34:37.307Z,5.83
2018-07-06T18:37:06.326Z,5.30
2018-07-06T18:39:35.477Z,5.30
2018-07-06T18:42:04.480Z,5.30
2018-07-06T18:44:33.513Z,4.90
2018-07-06T18:47:02.520Z,4.90
2018-07-06T18:49:31.613Z,5.30
2018-07-06T18:52:00.625Z,5.30
2018-07-06T18:54:29.641Z,4.97
2018-07-06T18:56:58.688Z,5.40
2018-07-06T18:59:27.698Z,5.80
2018-07-06T19:01:56.746Z,5.60
2018-07-06T19:04:25.821Z,6.30
2018-07-06T19:06:54.975Z,5.73
2018-07-06T19:09:23.987Z,5.30
2018-07-06T19:11:53.005Z,5.00
2018-07-06T19:14:22.111Z,4.90
2018-07-06T19:16:51.611Z,5.53
2018-07-06T19:19:20.629Z,5.00
2018-07-06T19:21:50.225Z,5.53
2018-07-06T19:24:19.301Z,5.70
2018-07-06T19:26:48.287Z,5.53
2018-07-06T19:29:17.889Z,5.30
2018-07-06T19:31:46.892Z,5.80
2018-07-06T19:34:16.001Z,5.03
2018-07-06T19:36:47.030Z,5.30
2018-07-06T19:39:16.163Z,5.67
2018-07-06T19:41:45.145Z,4.93
2018-07-06T19:44:14.215Z,5.57
2018-07-06T19:46:43.393Z,5.53
2018-07-06T19:49:12.435Z,5.67
2018-07-06T19:51:41.461Z,5.53
2018-07-06T19:56:45.839Z,5.77
2018-07-06T19:59:14.797Z,5.77
2018-07-06T20:01:43.823Z,5.80
2018-07-06T20:04:12.881Z,6.70
2018-07-06T20:06:41.913Z,5.80
2018-07-06T20:09:11.125Z,6.90
2018-07-06T20:11:40.110Z,6.20
2018-07-06T20:14:09.100Z,6.30
2018-07-06T20:16:38.196Z,6.47
2018-07-06T20:19:07.288Z,6.40
2018-07-06T20:21:36.287Z,6.53
2018-07-06T20:24:05.349Z,6.20
2018-07-06T20:26:34.372Z,6.53
2018-07-06T20:29:03.395Z,6.30
2018-07-06T20:31:32.639Z,6.67
2018-07-06T20:34:01.703Z,7.03
2018-07-06T20:36:30.878Z,6.23
2018-07-06T20:38:59.923Z,6.13
2018-07-06T20:41:28.878Z,6.30
2018-07-06T20:43:57.943Z,6.80
2018-07-06T20:46:27.098Z,7.00
2018-07-06T20:48:56.235Z,6.17
2018-07-06T20:51:25.225Z,6.10
2018-07-06T20:53:54.354Z,6.63
2018-07-06T20:56:23.416Z,6.83
2018-07-06T20:58:52.561Z,6.50
2018-07-06T21:01:21.621Z,6.00
2018-07-06T21:03:50.705Z,6.60
2018-07-06T21:06:19.725Z,5.97
2018-07-06T21:08:48.733Z,6.17
2018-07-06T21:11:17.819Z,6.70
2018-07-06T21:13:46.883Z,5.90
2018-07-06T21:16:15.875Z,7.00
2018-07-06T21:18:44.882Z,5.90
2018-07-06T21:21:13.883Z,6.07
2018-07-06T21:23:42.881Z,6.40
2018-07-06T21:26:11.894Z,7.13
2018-07-06T21:28:40.953Z,6.40
2018-07-06T21:31:09.940Z,6.60
2018-07-06T21:33:38.944Z,6.30
2018-07-06T21:36:07.999Z,6.30
2018-07-06T21:38:36.994Z,6.03
2018-07-06T21:41:05.738Z,6.43
2018-07-06T21:43:34.667Z,6.50
2018-07-06T21:46:03.692Z,6.30
2018-07-06T21:48:32.676Z,6.53
2018-07-06T21:51:01.683Z,6.33
2018-07-06T21:53:30.694Z,6.23
2018-07-06T21:55:59.718Z,6.10
2018-07-06T21:58:28.730Z,6.30
2018-07-06T22:00:57.760Z,6.37
2018-07-06T22:03:26.790Z,6.13
2018-07-06T22:05:55.874Z,6.17
2018-07-06T22:08:24.843Z,6.73
2018-07-06T22:10:53.836Z,7.10
2018-07-06T22:13:22.858Z,7.23
2018-07-06T22:15:51.934Z,6.97
2018-07-06T22:18:21.016Z,6.50
2018-07-06T22:20:50.092Z,6.47
2018-07-06T22:23:19.073Z,6.57
2018-07-06T22:25:48.072Z,6.60
2018-07-06T22:28:17.113Z,6.87
2018-07-06T22:30:46.093Z,7.50
2018-07-06T22:33:15.078Z,7.47
2018-07-06T22:35:44.069Z,7.07
2018-07-06T22:38:13.065Z,6.80
2018-07-06T22:40:43.593Z,6.90
2018-07-06T22:43:13.029Z,6.37
2018-07-06T22:45:42.017Z,7.27
2018-07-06T22:48:11.013Z,6.57
2018-07-06T22:50:40.080Z,7.23
2018-07-06T22:53:09.039Z,7.40
2018-07-06T22:55:38.008Z,7.97
2018-07-06T22:58:07.009Z,7.53
2018-07-06T23:00:36.018Z,7.60
2018-07-06T23:03:05.827Z,7.20
2018-07-06T23:05:34.917Z,8.00
2018-07-06T23:08:03.893Z,7.60
2018-07-06T23:10:32.905Z,8.13
2018-07-06T23:13:01.903Z,8.17
2018-07-06T23:15:30.897Z,8.37
2018-07-06T23:17:59.929Z,8.20
2018-07-06T23:20:28.893Z,8.00
2018-07-06T23:23:16.698Z,8.70
2018-07-06T23:25:46.897Z,8.90
2018-07-06T23:28:16.072Z,9.27
2018-07-06T23:30:45.104Z,8.73
2018-07-06T23:33:14.240Z,8.47
2018-07-06T23:35:43.259Z,8.93
2018-07-06T23:38:12.378Z,8.53
2018-07-06T23:40:41.237Z,7.87
2018-07-06T23:43:10.352Z,8.97
2018-07-06T23:45:39.308Z,9.17
2018-07-06T23:48:08.052Z,8.00
2018-07-06T23:50:36.944Z,8.03
2018-07-06T23:53:06.003Z,9.00
2018-07-06T23:55:35.018Z,8.70
2018-07-06T23:58:04.112Z,8.67
